sensor_id;sensor_type;location;lat;lon;timestamp;P1;durP1;ratioP1;P2;durP2;ratioP2
35380;SDS011;21486;51.916;8.378;2023-11-21T00:02:20;25.98;;;12.00;;
35380;SDS011;21486;51.916;8.378;2023-11-21T00:04:47;26.30;;;12.10;;
35380;SDS011;21486;51.916;8.378;2023-11-21T00:07:13;23.85;;;12.93;;
35380;SDS011;21486;51.916;8.378;2023-11-21T00:09:39;29.90;;;12.38;;
35380;SDS011;21486;51.916;8.378;2023-11-21T00:12:06;25.35;;;12.88;;
35380;SDS011;21486;51.916;8.378;2023-11-21T00:14:35;22.63;;;13.00;;
35380;SDS011;21486;51.916;8.378;2023-11-21T00:17:04;23.85;;;12.38;;
35380;SDS011;21486;51.916;8.378;2023-11-21T00:19:30;22.38;;;12.05;;
35380;SDS011;21486;51.916;8.378;2023-11-21T00:21:56;24.08;;;11.70;;
35380;SDS011;21486;51.916;8.378;2023-11-21T00:24:23;20.52;;;10.95;;
35380;SDS011;21486;51.916;8.378;2023-11-21T00:26:49;23.30;;;12.55;;
35380;SDS011;21486;51.916;8.378;2023-11-21T00:29:15;20.98;;;11.32;;
35380;SDS011;21486;51.916;8.378;2023-11-21T00:31:42;23.35;;;12.15;;
35380;SDS011;21486;51.916;8.378;2023-11-21T00:34:09;22.30;;;11.77;;
35380;SDS011;21486;51.916;8.378;2023-11-21T00:36:34;25.63;;;12.35;;
35380;SDS011;21486;51.916;8.378;2023-11-21T00:39:00;28.55;;;11.38;;
35380;SDS011;21486;51.916;8.378;2023-11-21T00:41:28;21.65;;;11.65;;
35380;SDS011;21486;51.916;8.378;2023-11-21T00:43:53;23.20;;;12.10;;
35380;SDS011;21486;51.916;8.378;2023-11-21T00:46:20;20.30;;;11.05;;
35380;SDS011;21486;51.916;8.378;2023-11-21T00:48:46;24.63;;;11.38;;
35380;SDS011;21486;51.916;8.378;2023-11-21T00:51:11;29.00;;;11.97;;
35380;SDS011;21486;51.916;8.378;2023-11-21T00:53:37;29.40;;;12.73;;
35380;SDS011;21486;51.916;8.378;2023-11-21T00:56:03;23.50;;;12.03;;
35380;SDS011;21486;51.916;8.378;2023-11-21T00:58:28;22.93;;;12.30;;
35380;SDS011;21486;51.916;8.378;2023-11-21T01:00:55;22.73;;;12.43;;
35380;SDS011;21486;51.916;8.378;2023-11-21T01:03:21;21.80;;;12.38;;
35380;SDS011;21486;51.916;8.378;2023-11-21T01:05:46;23.20;;;12.48;;
35380;SDS011;21486;51.916;8.378;2023-11-21T01:08:14;23.20;;;12.93;;
35380;SDS011;21486;51.916;8.378;2023-11-21T01:10:40;25.58;;;12.25;;
35380;SDS011;21486;51.916;8.378;2023-11-21T01:13:05;22.17;;;12.55;;
35380;SDS011;21486;51.916;8.378;2023-11-21T01:15:32;24.55;;;12.55;;
35380;SDS011;21486;51.916;8.378;2023-11-21T01:17:58;24.33;;;12.25;;
35380;SDS011;21486;51.916;8.378;2023-11-21T01:20:24;23.95;;;12.50;;
35380;SDS011;21486;51.916;8.378;2023-11-21T01:22:49;23.83;;;12.30;;
35380;SDS011;21486;51.916;8.378;2023-11-21T01:25:15;24.23;;;12.00;;
35380;SDS011;21486;51.916;8.378;2023-11-21T01:27:41;26.23;;;11.80;;
35380;SDS011;21486;51.916;8.378;2023-11-21T01:33:01;21.55;;;11.98;;
35380;SDS011;21486;51.916;8.378;2023-11-21T01:35:27;23.55;;;12.60;;
35380;SDS011;21486;51.916;8.378;2023-11-21T01:37:53;23.23;;;12.50;;
35380;SDS011;21486;51.916;8.378;2023-11-21T01:40:19;26.07;;;12.00;;
35380;SDS011;21486;51.916;8.378;2023-11-21T01:42:44;21.77;;;12.43;;
35380;SDS011;21486;51.916;8.378;2023-11-21T01:45:11;23.85;;;12.27;;
35380;SDS011;21486;51.916;8.378;2023-11-21T01:47:37;25.45;;;12.65;;
35380;SDS011;21486;51.916;8.378;2023-11-21T01:50:06;24.98;;;12.63;;
35380;SDS011;21486;51.916;8.378;2023-11-21T01:52:33;25.85;;;13.00;;
35380;SDS011;21486;51.916;8.378;2023-11-21T01:55:00;24.00;;;12.65;;
35380;SDS011;21486;51.916;8.378;2023-11-21T01:57:25;23.85;;;11.63;;
35380;SDS011;21486;51.916;8.378;2023-11-21T01:59:52;22.98;;;12.60;;
35380;SDS011;21486;51.916;8.378;2023-11-21T02:02:19;23.17;;;13.15;;
35380;SDS011;21486;51.916;8.378;2023-11-21T02:04:45;25.48;;;12.43;;
35380;SDS011;21486;51.916;8.378;2023-11-21T02:07:11;25.27;;;12.25;;
35380;SDS011;21486;51.916;8.378;2023-11-21T02:09:36;24.90;;;12.85;;
35380;SDS011;21486;51.916;8.378;2023-11-21T02:12:07;24.85;;;12.77;;
35380;SDS011;21486;51.916;8.378;2023-11-21T02:14:35;24.38;;;12.68;;
35380;SDS011;21486;51.916;8.378;2023-11-21T02:17:01;22.85;;;11.98;;
35380;SDS011;21486;51.916;8.378;2023-11-21T02:19:28;28.80;;;13.57;;
35380;SDS011;21486;51.916;8.378;2023-11-21T02:21:55;29.77;;;13.45;;
35380;SDS011;21486;51.916;8.378;2023-11-21T02:24:28;22.77;;;12.97;;
35380;SDS011;21486;51.916;8.378;2023-11-21T02:26:53;23.47;;;12.40;;
35380;SDS011;21486;51.916;8.378;2023-11-21T02:29:20;22.73;;;11.82;;
35380;SDS011;21486;51.916;8.378;2023-11-21T02:31:55;28.05;;;12.73;;
35380;SDS011;21486;51.916;8.378;2023-11-21T02:34:22;23.58;;;12.52;;
35380;SDS011;21486;51.916;8.378;2023-11-21T02:36:49;26.38;;;12.65;;
35380;SDS011;21486;51.916;8.378;2023-11-21T02:39:16;25.98;;;12.85;;
35380;SDS011;21486;51.916;8.378;2023-11-21T02:41:42;22.38;;;12.82;;
35380;SDS011;21486;51.916;8.378;2023-11-21T02:44:08;22.83;;;11.90;;
35380;SDS011;21486;51.916;8.378;2023-11-21T02:46:35;26.02;;;12.68;;
35380;SDS011;21486;51.916;8.378;2023-11-21T02:49:01;25.80;;;13.27;;
35380;SDS011;21486;51.916;8.378;2023-11-21T02:51:35;28.98;;;12.70;;
35380;SDS011;21486;51.916;8.378;2023-11-21T02:54:03;28.15;;;12.68;;
35380;SDS011;21486;51.916;8.378;2023-11-21T02:56:31;19.40;;;11.88;;
35380;SDS011;21486;51.916;8.378;2023-11-21T02:58:58;23.27;;;12.23;;
35380;SDS011;21486;51.916;8.378;2023-11-21T03:01:25;24.48;;;13.00;;
35380;SDS011;21486;51.916;8.378;2023-11-21T03:03:50;29.73;;;13.77;;
35380;SDS011;21486;51.916;8.378;2023-11-21T03:06:19;27.17;;;13.18;;
35380;SDS011;21486;51.916;8.378;2023-11-21T03:08:45;22.65;;;12.38;;
35380;SDS011;21486;51.916;8.378;2023-11-21T03:11:12;21.38;;;11.85;;
35380;SDS011;21486;51.916;8.378;2023-11-21T03:13:38;27.55;;;14.05;;
35380;SDS011;21486;51.916;8.378;2023-11-21T03:16:10;26.23;;;13.50;;
35380;SDS011;21486;51.916;8.378;2023-11-21T03:18:39;27.50;;;12.73;;
35380;SDS011;21486;51.916;8.378;2023-11-21T03:21:05;26.77;;;13.40;;
35380;SDS011;21486;51.916;8.378;2023-11-21T03:23:33;27.10;;;13.18;;
35380;SDS011;21486;51.916;8.378;2023-11-21T03:25:59;26.02;;;14.10;;
35380;SDS011;21486;51.916;8.378;2023-11-21T03:28:25;30.55;;;15.07;;
35380;SDS011;21486;51.916;8.378;2023-11-21T03:30:51;25.45;;;13.65;;
35380;SDS011;21486;51.916;8.378;2023-11-21T03:33:17;24.63;;;13.47;;
35380;SDS011;21486;51.916;8.378;2023-11-21T03:35:43;25.93;;;13.53;;
35380;SDS011;21486;51.916;8.378;2023-11-21T03:38:10;26.08;;;14.13;;
35380;SDS011;21486;51.916;8.378;2023-11-21T03:40:35;25.90;;;13.90;;
35380;SDS011;21486;51.916;8.378;2023-11-21T03:43:01;25.00;;;13.90;;
35380;SDS011;21486;51.916;8.378;2023-11-21T03:45:27;27.03;;;15.13;;
35380;SDS011;21486;51.916;8.378;2023-11-21T03:47:52;29.27;;;15.50;;
35380;SDS011;21486;51.916;8.378;2023-11-21T03:50:18;31.63;;;14.10;;
35380;SDS011;21486;51.916;8.378;2023-11-21T03:52:43;26.90;;;14.50;;
35380;SDS011;21486;51.916;8.378;2023-11-21T03:55:09;26.07;;;14.60;;
35380;SDS011;21486;51.916;8.378;2023-11-21T03:57:35;32.20;;;15.68;;
35380;SDS011;21486;51.916;8.378;2023-11-21T04:00:01;29.73;;;14.27;;
35380;SDS011;21486;51.916;8.378;2023-11-21T04:02:29;26.60;;;14.50;;
35380;SDS011;21486;51.916;8.378;2023-11-21T04:04:56;26.98;;;14.75;;
35380;SDS011;21486;51.916;8.378;2023-11-21T04:07:22;26.70;;;14.37;;
35380;SDS011;21486;51.916;8.378;2023-11-21T04:09:47;31.53;;;14.70;;
35380;SDS011;21486;51.916;8.378;2023-11-21T04:12:13;29.77;;;14.97;;
35380;SDS011;21486;51.916;8.378;2023-11-21T04:14:39;26.77;;;14.73;;
35380;SDS011;21486;51.916;8.378;2023-11-21T04:17:04;32.97;;;14.48;;
35380;SDS011;21486;51.916;8.378;2023-11-21T04:19:30;29.00;;;14.57;;
35380;SDS011;21486;51.916;8.378;2023-11-21T04:21:55;27.53;;;14.97;;
35380;SDS011;21486;51.916;8.378;2023-11-21T04:24:21;30.70;;;15.60;;
35380;SDS011;21486;51.916;8.378;2023-11-21T04:26:46;31.00;;;15.15;;
35380;SDS011;21486;51.916;8.378;2023-11-21T04:29:12;29.05;;;14.88;;
35380;SDS011;21486;51.916;8.378;2023-11-21T04:31:38;28.00;;;14.13;;
35380;SDS011;21486;51.916;8.378;2023-11-21T04:34:03;27.40;;;14.27;;
35380;SDS011;21486;51.916;8.378;2023-11-21T04:36:29;28.20;;;14.43;;
35380;SDS011;21486;51.916;8.378;2023-11-21T04:38:56;26.98;;;14.57;;
35380;SDS011;21486;51.916;8.378;2023-11-21T04:41:21;29.58;;;15.38;;
35380;SDS011;21486;51.916;8.378;2023-11-21T04:43:47;27.98;;;15.40;;
35380;SDS011;21486;51.916;8.378;2023-11-21T04:46:13;31.35;;;15.73;;
35380;SDS011;21486;51.916;8.378;2023-11-21T04:48:38;31.73;;;15.95;;
35380;SDS011;21486;51.916;8.378;2023-11-21T04:51:04;35.63;;;16.80;;
35380;SDS011;21486;51.916;8.378;2023-11-21T04:53:30;28.07;;;15.47;;
35380;SDS011;21486;51.916;8.378;2023-11-21T04:55:55;34.23;;;16.73;;
35380;SDS011;21486;51.916;8.378;2023-11-21T04:58:21;28.67;;;16.02;;
35380;SDS011;21486;51.916;8.378;2023-11-21T05:00:46;33.88;;;16.30;;
35380;SDS011;21486;51.916;8.378;2023-11-21T05:03:12;28.00;;;15.10;;
35380;SDS011;21486;51.916;8.378;2023-11-21T05:05:37;29.50;;;16.00;;
35380;SDS011;21486;51.916;8.378;2023-11-21T05:08:03;31.23;;;16.73;;
35380;SDS011;21486;51.916;8.378;2023-11-21T05:10:29;33.60;;;15.98;;
35380;SDS011;21486;51.916;8.378;2023-11-21T05:12:55;35.53;;;17.05;;
35380;SDS011;21486;51.916;8.378;2023-11-21T05:15:20;32.63;;;17.13;;
35380;SDS011;21486;51.916;8.378;2023-11-21T05:17:46;28.40;;;16.00;;
35380;SDS011;21486;51.916;8.378;2023-11-21T05:20:15;31.02;;;16.80;;
35380;SDS011;21486;51.916;8.378;2023-11-21T05:22:48;31.00;;;16.70;;
35380;SDS011;21486;51.916;8.378;2023-11-21T05:25:14;37.35;;;17.45;;
35380;SDS011;21486;51.916;8.378;2023-11-21T05:27:40;32.03;;;16.95;;
35380;SDS011;21486;51.916;8.378;2023-11-21T05:30:06;29.88;;;15.70;;
35380;SDS011;21486;51.916;8.378;2023-11-21T05:32:34;38.25;;;16.73;;
35380;SDS011;21486;51.916;8.378;2023-11-21T05:34:59;32.03;;;16.87;;
35380;SDS011;21486;51.916;8.378;2023-11-21T05:37:26;31.38;;;15.93;;
35380;SDS011;21486;51.916;8.378;2023-11-21T05:39:52;29.98;;;15.45;;
35380;SDS011;21486;51.916;8.378;2023-11-21T05:42:19;33.73;;;16.27;;
35380;SDS011;21486;51.916;8.378;2023-11-21T05:44:45;33.13;;;16.50;;
35380;SDS011;21486;51.916;8.378;2023-11-21T05:47:11;26.95;;;15.63;;
35380;SDS011;21486;51.916;8.378;2023-11-21T05:49:38;36.03;;;15.63;;
35380;SDS011;21486;51.916;8.378;2023-11-21T05:52:04;36.87;;;16.50;;
35380;SDS011;21486;51.916;8.378;2023-11-21T05:54:30;31.05;;;16.63;;
35380;SDS011;21486;51.916;8.378;2023-11-21T05:56:56;30.65;;;16.10;;
35380;SDS011;21486;51.916;8.378;2023-11-21T05:59:22;29.27;;;15.68;;
35380;SDS011;21486;51.916;8.378;2023-11-21T06:01:48;31.00;;;16.33;;
35380;SDS011;21486;51.916;8.378;2023-11-21T06:04:14;31.90;;;15.00;;
35380;SDS011;21486;51.916;8.378;2023-11-21T06:06:39;38.20;;;17.35;;
35380;SDS011;21486;51.916;8.378;2023-11-21T06:09:05;38.42;;;19.05;;
35380;SDS011;21486;51.916;8.378;2023-11-21T06:11:33;36.60;;;18.70;;
35380;SDS011;21486;51.916;8.378;2023-11-21T06:13:59;40.83;;;20.80;;
35380;SDS011;21486;51.916;8.378;2023-11-21T06:16:25;42.80;;;21.60;;
35380;SDS011;21486;51.916;8.378;2023-11-21T06:18:50;46.70;;;22.93;;
35380;SDS011;21486;51.916;8.378;2023-11-21T06:21:16;38.57;;;19.77;;
35380;SDS011;21486;51.916;8.378;2023-11-21T06:23:43;41.33;;;20.98;;
35380;SDS011;21486;51.916;8.378;2023-11-21T06:26:08;37.38;;;20.02;;
35380;SDS011;21486;51.916;8.378;2023-11-21T06:28:34;40.28;;;18.25;;
35380;SDS011;21486;51.916;8.378;2023-11-21T06:31:01;37.95;;;18.42;;
35380;SDS011;21486;51.916;8.378;2023-11-21T06:33:30;38.15;;;17.73;;
35380;SDS011;21486;51.916;8.378;2023-11-21T06:35:56;34.77;;;16.90;;
35380;SDS011;21486;51.916;8.378;2023-11-21T06:38:22;31.93;;;15.97;;
35380;SDS011;21486;51.916;8.378;2023-11-21T06:40:47;31.07;;;17.07;;
35380;SDS011;21486;51.916;8.378;2023-11-21T06:43:13;29.40;;;16.63;;
35380;SDS011;21486;51.916;8.378;2023-11-21T06:45:39;29.55;;;16.73;;
35380;SDS011;21486;51.916;8.378;2023-11-21T06:48:05;33.87;;;17.67;;
35380;SDS011;21486;51.916;8.378;2023-11-21T06:50:30;30.33;;;15.77;;
35380;SDS011;21486;51.916;8.378;2023-11-21T06:52:56;35.95;;;16.05;;
35380;SDS011;21486;51.916;8.378;2023-11-21T06:55:21;33.80;;;16.63;;
35380;SDS011;21486;51.916;8.378;2023-11-21T06:57:47;37.23;;;17.63;;
35380;SDS011;21486;51.916;8.378;2023-11-21T07:00:13;33.17;;;16.90;;
35380;SDS011;21486;51.916;8.378;2023-11-21T07:02:42;37.15;;;17.60;;
35380;SDS011;21486;51.916;8.378;2023-11-21T07:05:08;35.10;;;17.37;;
35380;SDS011;21486;51.916;8.378;2023-11-21T07:07:34;42.87;;;18.60;;
35380;SDS011;21486;51.916;8.378;2023-11-21T07:10:00;34.75;;;17.23;;
35380;SDS011;21486;51.916;8.378;2023-11-21T07:12:28;36.25;;;17.30;;
35380;SDS011;21486;51.916;8.378;2023-11-21T07:14:56;32.97;;;16.77;;
35380;SDS011;21486;51.916;8.378;2023-11-21T07:17:22;35.80;;;17.42;;
35380;SDS011;21486;51.916;8.378;2023-11-21T07:19:49;32.50;;;17.27;;
35380;SDS011;21486;51.916;8.378;2023-11-21T07:22:15;38.03;;;17.88;;
35380;SDS011;21486;51.916;8.378;2023-11-21T07:24:46;36.25;;;18.10;;
35380;SDS011;21486;51.916;8.378;2023-11-21T07:27:14;34.03;;;18.38;;
35380;SDS011;21486;51.916;8.378;2023-11-21T07:29:40;39.95;;;18.30;;
35380;SDS011;21486;51.916;8.378;2023-11-21T07:32:06;44.88;;;18.73;;
35380;SDS011;21486;51.916;8.378;2023-11-21T07:34:34;39.25;;;18.08;;
35380;SDS011;21486;51.916;8.378;2023-11-21T07:36:59;36.77;;;18.73;;
35380;SDS011;21486;51.916;8.378;2023-11-21T07:39:25;32.85;;;17.73;;
35380;SDS011;21486;51.916;8.378;2023-11-21T07:41:50;37.13;;;17.90;;
35380;SDS011;21486;51.916;8.378;2023-11-21T07:44:16;39.20;;;18.57;;
35380;SDS011;21486;51.916;8.378;2023-11-21T07:46:42;38.58;;;18.17;;
35380;SDS011;21486;51.916;8.378;2023-11-21T07:49:08;40.35;;;20.52;;
35380;SDS011;21486;51.916;8.378;2023-11-21T07:51:34;33.75;;;18.88;;
35380;SDS011;21486;51.916;8.378;2023-11-21T07:53:59;41.97;;;19.48;;
35380;SDS011;21486;51.916;8.378;2023-11-21T07:56:25;44.97;;;19.58;;
35380;SDS011;21486;51.916;8.378;2023-11-21T07:58:51;46.97;;;20.23;;
35380;SDS011;21486;51.916;8.378;2023-11-21T08:01:17;45.35;;;21.23;;
35380;SDS011;21486;51.916;8.378;2023-11-21T08:03:42;49.60;;;21.70;;
35380;SDS011;21486;51.916;8.378;2023-11-21T08:06:09;49.10;;;20.98;;
35380;SDS011;21486;51.916;8.378;2023-11-21T08:08:35;54.13;;;22.67;;
35380;SDS011;21486;51.916;8.378;2023-11-21T08:11:01;48.97;;;21.33;;
35380;SDS011;21486;51.916;8.378;2023-11-21T08:13:27;47.65;;;21.80;;
35380;SDS011;21486;51.916;8.378;2023-11-21T08:15:55;46.10;;;21.45;;
35380;SDS011;21486;51.916;8.378;2023-11-21T08:18:23;49.22;;;21.75;;
35380;SDS011;21486;51.916;8.378;2023-11-21T08:20:49;53.60;;;21.17;;
35380;SDS011;21486;51.916;8.378;2023-11-21T08:23:15;54.80;;;21.73;;
35380;SDS011;21486;51.916;8.378;2023-11-21T08:25:44;48.67;;;21.40;;
35380;SDS011;21486;51.916;8.378;2023-11-21T08:28:09;54.20;;;21.17;;
35380;SDS011;21486;51.916;8.378;2023-11-21T08:30:35;53.97;;;23.13;;
35380;SDS011;21486;51.916;8.378;2023-11-21T08:33:00;55.88;;;23.45;;
35380;SDS011;21486;51.916;8.378;2023-11-21T08:35:28;55.78;;;22.50;;
35380;SDS011;21486;51.916;8.378;2023-11-21T08:37:53;46.80;;;20.30;;
35380;SDS011;21486;51.916;8.378;2023-11-21T08:40:19;55.27;;;22.87;;
35380;SDS011;21486;51.916;8.378;2023-11-21T08:42:46;54.42;;;21.75;;
35380;SDS011;21486;51.916;8.378;2023-11-21T08:45:13;48.20;;;21.83;;
35380;SDS011;21486;51.916;8.378;2023-11-21T08:47:39;45.30;;;19.70;;
35380;SDS011;21486;51.916;8.378;2023-11-21T08:50:06;41.75;;;19.50;;
35380;SDS011;21486;51.916;8.378;2023-11-21T08:52:33;45.72;;;20.80;;
35380;SDS011;21486;51.916;8.378;2023-11-21T08:54:59;44.65;;;18.95;;
35380;SDS011;21486;51.916;8.378;2023-11-21T08:57:27;45.53;;;19.08;;
35380;SDS011;21486;51.916;8.378;2023-11-21T08:59:53;44.03;;;18.97;;
35380;SDS011;21486;51.916;8.378;2023-11-21T09:02:25;38.35;;;18.55;;
35380;SDS011;21486;51.916;8.378;2023-11-21T09:04:51;39.07;;;17.67;;
35380;SDS011;21486;51.916;8.378;2023-11-21T09:07:17;33.33;;;16.90;;
35380;SDS011;21486;51.916;8.378;2023-11-21T09:09:45;31.73;;;16.33;;
35380;SDS011;21486;51.916;8.378;2023-11-21T09:12:11;34.75;;;17.08;;
35380;SDS011;21486;51.916;8.378;2023-11-21T09:14:37;31.67;;;15.93;;
35380;SDS011;21486;51.916;8.378;2023-11-21T09:17:03;30.63;;;16.20;;
35380;SDS011;21486;51.916;8.378;2023-11-21T09:19:28;33.20;;;16.30;;
35380;SDS011;21486;51.916;8.378;2023-11-21T09:21:54;35.97;;;16.40;;
35380;SDS011;21486;51.916;8.378;2023-11-21T09:24:22;36.80;;;16.42;;
35380;SDS011;21486;51.916;8.378;2023-11-21T09:26:47;38.60;;;16.07;;
35380;SDS011;21486;51.916;8.378;2023-11-21T09:29:13;32.97;;;16.25;;
35380;SDS011;21486;51.916;8.378;2023-11-21T09:31:38;36.22;;;16.88;;
35380;SDS011;21486;51.916;8.378;2023-11-21T09:34:04;33.85;;;15.20;;
35380;SDS011;21486;51.916;8.378;2023-11-21T09:36:31;36.15;;;15.70;;
35380;SDS011;21486;51.916;8.378;2023-11-21T09:38:58;34.42;;;15.40;;
35380;SDS011;21486;51.916;8.378;2023-11-21T09:41:34;31.25;;;15.18;;
35380;SDS011;21486;51.916;8.378;2023-11-21T09:44:02;32.25;;;14.77;;
35380;SDS011;21486;51.916;8.378;2023-11-21T09:46:31;31.80;;;14.65;;
35380;SDS011;21486;51.916;8.378;2023-11-21T09:48:56;34.90;;;15.10;;
35380;SDS011;21486;51.916;8.378;2023-11-21T09:51:25;31.02;;;14.02;;
35380;SDS011;21486;51.916;8.378;2023-11-21T09:53:55;33.92;;;14.55;;
35380;SDS011;21486;51.916;8.378;2023-11-21T09:56:24;41.50;;;14.47;;
35380;SDS011;21486;51.916;8.378;2023-11-21T09:58:52;33.67;;;14.30;;
35380;SDS011;21486;51.916;8.378;2023-11-21T10:01:18;31.77;;;13.55;;
35380;SDS011;21486;51.916;8.378;2023-11-21T10:03:45;27.20;;;12.87;;
35380;SDS011;21486;51.916;8.378;2023-11-21T10:06:12;26.10;;;12.88;;
35380;SDS011;21486;51.916;8.378;2023-11-21T10:08:39;23.58;;;10.88;;
35380;SDS011;21486;51.916;8.378;2023-11-21T10:11:06;22.97;;;10.13;;
35380;SDS011;21486;51.916;8.378;2023-11-21T10:13:33;27.23;;;9.80;;
35380;SDS011;21486;51.916;8.378;2023-11-21T10:16:00;22.35;;;9.98;;
35380;SDS011;21486;51.916;8.378;2023-11-21T10:18:30;25.80;;;10.55;;
35380;SDS011;21486;51.916;8.378;2023-11-21T10:20:59;21.60;;;9.77;;
35380;SDS011;21486;51.916;8.378;2023-11-21T10:23:25;19.90;;;9.27;;
35380;SDS011;21486;51.916;8.378;2023-11-21T10:25:52;18.23;;;8.68;;
35380;SDS011;21486;51.916;8.378;2023-11-21T10:28:18;22.58;;;10.77;;
35380;SDS011;21486;51.916;8.378;2023-11-21T10:30:44;18.10;;;8.80;;
35380;SDS011;21486;51.916;8.378;2023-11-21T10:33:09;14.80;;;7.43;;
35380;SDS011;21486;51.916;8.378;2023-11-21T10:35:39;14.73;;;8.32;;
35380;SDS011;21486;51.916;8.378;2023-11-21T10:38:11;14.00;;;7.60;;
35380;SDS011;21486;51.916;8.378;2023-11-21T10:40:40;12.93;;;7.07;;
35380;SDS011;21486;51.916;8.378;2023-11-21T10:43:07;12.45;;;7.13;;
35380;SDS011;21486;51.916;8.378;2023-11-21T10:45:38;11.02;;;6.28;;
35380;SDS011;21486;51.916;8.378;2023-11-21T10:48:07;12.27;;;7.40;;
35380;SDS011;21486;51.916;8.378;2023-11-21T10:50:35;10.63;;;5.97;;
35380;SDS011;21486;51.916;8.378;2023-11-21T10:53:02;9.87;;;5.97;;
35380;SDS011;21486;51.916;8.378;2023-11-21T10:55:29;9.70;;;5.60;;
35380;SDS011;21486;51.916;8.378;2023-11-21T10:57:58;10.90;;;5.90;;
35380;SDS011;21486;51.916;8.378;2023-11-21T11:00:25;8.98;;;5.35;;
35380;SDS011;21486;51.916;8.378;2023-11-21T11:02:52;9.55;;;6.07;;
35380;SDS011;21486;51.916;8.378;2023-11-21T11:05:22;10.65;;;6.18;;
35380;SDS011;21486;51.916;8.378;2023-11-21T11:07:50;11.93;;;6.57;;
35380;SDS011;21486;51.916;8.378;2023-11-21T11:10:19;9.88;;;6.07;;
35380;SDS011;21486;51.916;8.378;2023-11-21T11:12:47;12.30;;;6.60;;
35380;SDS011;21486;51.916;8.378;2023-11-21T11:15:15;11.30;;;6.10;;
35380;SDS011;21486;51.916;8.378;2023-11-21T11:17:41;11.63;;;6.40;;
35380;SDS011;21486;51.916;8.378;2023-11-21T11:20:09;10.70;;;6.22;;
35380;SDS011;21486;51.916;8.378;2023-11-21T11:22:44;9.30;;;5.53;;
35380;SDS011;21486;51.916;8.378;2023-11-21T11:28:12;11.65;;;5.78;;
35380;SDS011;21486;51.916;8.378;2023-11-21T11:33:41;9.00;;;5.43;;
35380;SDS011;21486;51.916;8.378;2023-11-21T11:38:36;8.38;;;5.00;;
35380;SDS011;21486;51.916;8.378;2023-11-21T11:41:02;9.03;;;5.20;;
35380;SDS011;21486;51.916;8.378;2023-11-21T11:43:29;8.05;;;4.70;;
35380;SDS011;21486;51.916;8.378;2023-11-21T11:45:58;9.80;;;5.13;;
35380;SDS011;21486;51.916;8.378;2023-11-21T11:48:24;7.95;;;4.63;;
35380;SDS011;21486;51.916;8.378;2023-11-21T11:51:32;6.93;;;4.68;;
35380;SDS011;21486;51.916;8.378;2023-11-21T11:53:42;7.60;;;4.60;;
35380;SDS011;21486;51.916;8.378;2023-11-21T11:56:30;7.87;;;4.60;;
35380;SDS011;21486;51.916;8.378;2023-11-21T11:58:59;8.05;;;4.50;;
35380;SDS011;21486;51.916;8.378;2023-11-21T12:01:32;8.02;;;4.72;;
35380;SDS011;21486;51.916;8.378;2023-11-21T12:06:39;10.05;;;4.63;;
35380;SDS011;21486;51.916;8.378;2023-11-21T12:09:12;8.38;;;4.63;;
35380;SDS011;21486;51.916;8.378;2023-11-21T12:11:49;6.18;;;4.10;;
35380;SDS011;21486;51.916;8.378;2023-11-21T12:14:15;6.88;;;4.50;;
35380;SDS011;21486;51.916;8.378;2023-11-21T12:16:41;6.82;;;4.35;;
35380;SDS011;21486;51.916;8.378;2023-11-21T12:19:08;7.20;;;4.30;;
35380;SDS011;21486;51.916;8.378;2023-11-21T12:21:37;7.10;;;4.15;;
35380;SDS011;21486;51.916;8.378;2023-11-21T12:24:06;10.03;;;5.47;;
35380;SDS011;21486;51.916;8.378;2023-11-21T12:26:33;9.97;;;5.40;;
35380;SDS011;21486;51.916;8.378;2023-11-21T12:29:01;12.55;;;6.57;;
35380;SDS011;21486;51.916;8.378;2023-11-21T12:31:29;11.32;;;6.30;;
35380;SDS011;21486;51.916;8.378;2023-11-21T12:33:55;12.52;;;6.70;;
35380;SDS011;21486;51.916;8.378;2023-11-21T12:36:21;12.52;;;6.93;;
35380;SDS011;21486;51.916;8.378;2023-11-21T12:38:47;13.77;;;7.50;;
35380;SDS011;21486;51.916;8.378;2023-11-21T12:41:12;14.17;;;7.80;;
35380;SDS011;21486;51.916;8.378;2023-11-21T12:43:40;15.43;;;7.70;;
35380;SDS011;21486;51.916;8.378;2023-11-21T12:46:06;15.88;;;7.07;;
35380;SDS011;21486;51.916;8.378;2023-11-21T12:48:42;14.57;;;8.13;;
35380;SDS011;21486;51.916;8.378;2023-11-21T12:51:09;14.43;;;7.95;;
35380;SDS011;21486;51.916;8.378;2023-11-21T12:53:37;14.15;;;8.20;;
35380;SDS011;21486;51.916;8.378;2023-11-21T12:56:12;13.95;;;7.75;;
35380;SDS011;21486;51.916;8.378;2023-11-21T12:58:38;15.27;;;7.97;;
35380;SDS011;21486;51.916;8.378;2023-11-21T13:01:09;13.80;;;7.60;;
35380;SDS011;21486;51.916;8.378;2023-11-21T13:03:40;16.53;;;7.77;;
35380;SDS011;21486;51.916;8.378;2023-11-21T13:06:07;14.13;;;7.37;;
35380;SDS011;21486;51.916;8.378;2023-11-21T13:08:33;15.57;;;8.10;;
35380;SDS011;21486;51.916;8.378;2023-11-21T13:10:58;13.60;;;7.80;;
35380;SDS011;21486;51.916;8.378;2023-11-21T13:13:25;18.48;;;8.65;;
35380;SDS011;21486;51.916;8.378;2023-11-21T13:15:54;16.73;;;7.90;;
35380;SDS011;21486;51.916;8.378;2023-11-21T13:18:29;15.45;;;7.88;;
35380;SDS011;21486;51.916;8.378;2023-11-21T13:20:59;17.17;;;8.43;;
35380;SDS011;21486;51.916;8.378;2023-11-21T13:23:38;14.63;;;7.88;;
35380;SDS011;21486;51.916;8.378;2023-11-21T13:26:06;14.97;;;7.70;;
35380;SDS011;21486;51.916;8.378;2023-11-21T13:28:33;14.00;;;7.75;;
35380;SDS011;21486;51.916;8.378;2023-11-21T13:31:00;17.50;;;8.40;;
35380;SDS011;21486;51.916;8.378;2023-11-21T13:33:28;11.43;;;6.88;;
35380;SDS011;21486;51.916;8.378;2023-11-21T13:35:53;12.02;;;6.50;;
35380;SDS011;21486;51.916;8.378;2023-11-21T13:38:21;11.32;;;6.22;;
35380;SDS011;21486;51.916;8.378;2023-11-21T13:43:16;11.75;;;7.10;;
35380;SDS011;21486;51.916;8.378;2023-11-21T13:45:45;11.05;;;6.22;;
35380;SDS011;21486;51.916;8.378;2023-11-21T13:48:12;10.23;;;5.78;;
35380;SDS011;21486;51.916;8.378;2023-11-21T13:50:45;11.25;;;6.45;;
35380;SDS011;21486;51.916;8.378;2023-11-21T13:53:34;13.13;;;6.97;;
35380;SDS011;21486;51.916;8.378;2023-11-21T13:56:02;13.32;;;6.85;;
35380;SDS011;21486;51.916;8.378;2023-11-21T13:58:28;13.65;;;6.47;;
35380;SDS011;21486;51.916;8.378;2023-11-21T14:01:09;11.75;;;6.75;;
35380;SDS011;21486;51.916;8.378;2023-11-21T14:03:56;9.80;;;5.78;;
35380;SDS011;21486;51.916;8.378;2023-11-21T14:06:42;12.17;;;5.93;;
35380;SDS011;21486;51.916;8.378;2023-11-21T14:09:20;11.37;;;6.13;;
35380;SDS011;21486;51.916;8.378;2023-11-21T14:11:54;9.32;;;5.38;;
35380;SDS011;21486;51.916;8.378;2023-11-21T14:14:22;12.25;;;5.30;;
35380;SDS011;21486;51.916;8.378;2023-11-21T14:16:50;10.00;;;5.70;;
35380;SDS011;21486;51.916;8.378;2023-11-21T14:19:16;9.93;;;5.57;;
35380;SDS011;21486;51.916;8.378;2023-11-21T14:21:45;11.60;;;5.83;;
35380;SDS011;21486;51.916;8.378;2023-11-21T14:24:13;11.75;;;5.40;;
35380;SDS011;21486;51.916;8.378;2023-11-21T14:26:42;10.20;;;5.53;;
35380;SDS011;21486;51.916;8.378;2023-11-21T14:29:11;10.43;;;5.70;;
35380;SDS011;21486;51.916;8.378;2023-11-21T14:31:40;9.53;;;5.73;;
35380;SDS011;21486;51.916;8.378;2023-11-21T14:34:06;9.38;;;6.03;;
35380;SDS011;21486;51.916;8.378;2023-11-21T14:36:33;11.75;;;6.05;;
35380;SDS011;21486;51.916;8.378;2023-11-21T14:38:59;8.98;;;5.50;;
35380;SDS011;21486;51.916;8.378;2023-11-21T14:41:24;9.10;;;5.55;;
35380;SDS011;21486;51.916;8.378;2023-11-21T14:43:50;8.80;;;5.47;;